Time;durP1;ratioP1;P1;durP2;ratioP2;P2;SDS_P1;SDS_P2;PMS_P1;PMS_P2;Temp;Humidity;BMP_temperature;BMP_pressure;BME280_temperature;BME280_humidity;BME280_pressure;Samples;Min_cycle;Max_cycle;Signal;HPM_P1;HPM_P2
2021/10/15 00:00:53;;;;;;;7.72;2.75;;;15.80;99.90;;;;;;4882217;29;20219;-82
2021/10/15 00:03:20;;;;;;;4.15;2.28;;;15.80;99.90;;;;;;4882298;29;20644;-81
2021/10/15 00:05:47;;;;;;;7.13;3.00;;;15.70;99.90;;;;;;4882067;29;20231;-84
2021/10/15 00:08:14;;;;;;;8.00;4.07;;;15.70;99.90;;;;;;4891480;29;20239;-85
2021/10/15 00:10:42;;;;;;;9.90;4.40;;;15.70;99.90;;;;;;4901318;29;20214;-88
2021/10/15 00:13:09;;;;;;;11.48;3.88;;;15.80;99.90;;;;;;4886960;29;20220;-84
2021/10/15 00:15:36;;;;;;;12.27;4.13;;;15.80;99.90;;;;;;4882051;29;20695;-83
2021/10/15 00:18:03;;;;;;;14.82;3.63;;;15.80;99.90;;;;;;4882046;29;20542;-84
2021/10/15 00:20:31;;;;;;;14.82;4.45;;;15.80;99.90;;;;;;4881670;29;20204;-83
2021/10/15 00:22:57;;;;;;;15.57;4.55;;;15.80;99.90;;;;;;4894547;29;20215;-82
2021/10/15 00:25:24;;;;;;;12.20;4.57;;;15.80;99.90;;;;;;4900455;29;20199;-82
2021/10/15 00:27:53;;;;;;;10.02;4.38;;;15.80;99.90;;;;;;4900480;29;20203;-83
2021/10/15 00:30:20;;;;;;;16.27;5.55;;;15.70;99.90;;;;;;4900191;29;20592;-84
2021/10/15 00:32:46;;;;;;;14.20;5.40;;;15.80;99.90;;;;;;4900324;29;20207;-85
2021/10/15 00:35:13;;;;;;;12.85;4.80;;;15.80;99.90;;;;;;4900866;29;20218;-85
2021/10/15 00:37:40;;;;;;;13.68;5.25;;;15.80;99.90;;;;;;4900352;29;20231;-85
2021/10/15 00:40:07;;;;;;;11.60;4.13;;;15.80;99.90;;;;;;4885233;29;20219;-83
2021/10/15 00:42:37;;;;;;;15.63;5.25;;;15.80;99.90;;;;;;4881845;29;20212;-83
2021/10/15 00:45:06;;;;;;;10.98;4.75;;;15.80;99.90;;;;;;4881840;29;20210;-81
2021/10/15 00:47:33;;;;;;;14.48;4.75;;;15.80;99.90;;;;;;4881729;29;20195;-85
2021/10/15 00:50:00;;;;;;;18.67;5.88;;;15.80;99.90;;;;;;4882051;29;20204;-85
2021/10/15 00:52:28;;;;;;;16.13;4.50;;;15.80;99.90;;;;;;4882120;29;20212;-83
2021/10/15 00:54:56;;;;;;;12.05;4.53;;;15.80;99.90;;;;;;4881638;29;20203;-83
2021/10/15 00:57:22;;;;;;;13.68;4.82;;;15.80;99.90;;;;;;4881638;29;20223;-84
2021/10/15 00:59:50;;;;;;;14.73;4.80;;;15.80;99.90;;;;;;4881538;29;20211;-86
2021/10/15 01:02:19;;;;;;;9.60;4.47;;;15.80;99.90;;;;;;4881302;29;20214;-85
2021/10/15 01:04:47;;;;;;;13.05;4.53;;;15.80;99.90;;;;;;4881639;29;20199;-87
2021/10/15 01:07:14;;;;;;;12.20;4.55;;;15.80;99.90;;;;;;4881630;29;20243;-84
2021/10/15 01:09:41;;;;;;;17.70;4.78;;;15.80;99.90;;;;;;4881349;29;20637;-82
2021/10/15 01:12:09;;;;;;;16.63;5.03;;;15.80;99.90;;;;;;4881598;29;20597;-86
2021/10/15 01:14:36;;;;;;;14.43;4.60;;;15.90;99.90;;;;;;4881757;29;20212;-85
2021/10/15 01:17:03;;;;;;;15.80;5.43;;;16.00;99.90;;;;;;4881525;29;20628;-85
2021/10/15 01:19:32;;;;;;;12.48;3.88;;;15.90;99.90;;;;;;4881957;29;20256;-87
2021/10/15 01:22:02;;;;;;;10.40;4.63;;;15.90;99.90;;;;;;4881515;29;20208;-88
2021/10/15 01:24:29;;;;;;;9.02;3.08;;;15.90;99.90;;;;;;4881825;29;20203;-85
2021/10/15 01:26:56;;;;;;;14.93;4.53;;;15.90;99.90;;;;;;4881426;29;20223;-85
2021/10/15 01:29:26;;;;;;;9.88;3.60;;;15.90;99.90;;;;;;4881576;29;20200;-83
2021/10/15 01:31:53;;;;;;;15.73;4.03;;;15.90;99.90;;;;;;4881792;29;20212;-81
2021/10/15 01:34:19;;;;;;;12.05;4.00;;;15.90;99.90;;;;;;4881430;29;20211;-83
2021/10/15 01:36:46;;;;;;;10.98;3.58;;;15.90;99.90;;;;;;4881051;29;20208;-83
2021/10/15 01:39:14;;;;;;;8.85;2.35;;;15.90;99.90;;;;;;4881112;29;20216;-85
2021/10/15 01:41:41;;;;;;;10.40;3.28;;;15.90;99.90;;;;;;4884636;29;20219;-84
2021/10/15 01:44:08;;;;;;;7.57;2.95;;;15.90;99.90;;;;;;4884180;29;20216;-83
2021/10/15 01:46:34;;;;;;;8.77;3.08;;;15.80;99.90;;;;;;4884610;29;20208;-82
2021/10/15 01:49:01;;;;;;;12.23;4.03;;;15.80;99.90;;;;;;4885256;29;20220;-82
2021/10/15 01:51:28;;;;;;;12.10;3.97;;;15.80;99.90;;;;;;4884264;29;20215;-86
2021/10/15 01:53:55;;;;;;;10.98;3.58;;;15.80;99.90;;;;;;4884563;29;20207;-84
2021/10/15 01:56:23;;;;;;;10.05;3.13;;;15.80;99.90;;;;;;4884467;29;20200;-85
2021/10/15 01:58:50;;;;;;;13.13;3.00;;;15.80;99.90;;;;;;4884310;29;20236;-85
2021/10/15 02:01:17;;;;;;;9.20;3.03;;;15.70;99.90;;;;;;4884927;29;20211;-83
2021/10/15 02:03:43;;;;;;;11.57;2.92;;;15.80;99.90;;;;;;4884317;29;20212;-84
2021/10/15 02:06:10;;;;;;;12.32;3.78;;;15.70;99.90;;;;;;4883232;29;20238;-84
2021/10/15 02:08:37;;;;;;;11.32;3.17;;;15.70;99.90;;;;;;4884277;29;20220;-85
2021/10/15 02:11:05;;;;;;;16.10;3.35;;;15.70;99.90;;;;;;4884168;29;20200;-83
2021/10/15 02:13:33;;;;;;;10.73;2.90;;;15.80;99.90;;;;;;4884417;29;20212;-85
2021/10/15 02:16:00;;;;;;;10.93;3.72;;;15.80;99.90;;;;;;4892677;29;20207;-83
2021/10/15 02:18:27;;;;;;;14.50;3.20;;;15.70;99.90;;;;;;4902632;29;20238;-85
2021/10/15 02:20:54;;;;;;;12.13;3.10;;;15.70;99.90;;;;;;4892446;29;20212;-83
2021/10/15 02:23:21;;;;;;;13.48;3.40;;;15.70;99.90;;;;;;4884481;29;20223;-84
2021/10/15 02:25:47;;;;;;;14.20;3.80;;;15.70;99.90;;;;;;4883995;29;20200;-85
2021/10/15 02:28:14;;;;;;;15.02;3.58;;;15.70;99.90;;;;;;4883971;29;20212;-81
2021/10/15 02:30:42;;;;;;;11.02;3.97;;;15.70;99.90;;;;;;4884083;29;20200;-85
2021/10/15 02:33:09;;;;;;;13.20;3.10;;;15.70;99.90;;;;;;4883600;29;20196;-85
2021/10/15 02:35:36;;;;;;;15.32;3.65;;;15.70;99.90;;;;;;4884025;29;20208;-84
2021/10/15 02:38:03;;;;;;;18.27;3.38;;;15.70;99.90;;;;;;4883780;29;20672;-85
2021/10/15 02:40:30;;;;;;;10.23;2.72;;;15.60;99.90;;;;;;4884128;29;20216;-84
2021/10/15 02:42:58;;;;;;;9.15;2.97;;;15.60;99.90;;;;;;4884244;29;20263;-83
2021/10/15 02:45:25;;;;;;;17.02;2.90;;;15.60;99.90;;;;;;4883978;29;20200;-84
2021/10/15 02:47:53;;;;;;;8.48;3.00;;;15.60;99.90;;;;;;4889368;29;20593;-85
2021/10/15 02:50:20;;;;;;;8.65;3.25;;;15.70;99.90;;;;;;4902601;29;20210;-85
2021/10/15 02:52:47;;;;;;;13.63;3.40;;;15.70;99.90;;;;;;4901727;29;20601;-86
2021/10/15 02:55:13;;;;;;;12.43;3.73;;;15.70;99.90;;;;;;4901945;29;20203;-85
2021/10/15 02:57:40;;;;;;;12.48;3.15;;;15.70;99.90;;;;;;4884585;29;20240;-85
2021/10/15 03:00:08;;;;;;;10.35;3.40;;;15.70;99.90;;;;;;4883421;29;20215;-84
2021/10/15 03:02:35;;;;;;;13.77;3.85;;;15.60;99.90;;;;;;4883530;29;20505;-83
2021/10/15 03:05:04;;;;;;;8.35;3.22;;;15.60;99.90;;;;;;4883402;29;20208;-85
2021/10/15 03:07:30;;;;;;;12.55;3.35;;;15.70;99.90;;;;;;4882402;29;20244;-85
2021/10/15 03:09:57;;;;;;;10.75;3.17;;;15.70;99.90;;;;;;4883245;29;20207;-83
2021/10/15 03:12:24;;;;;;;9.98;3.05;;;15.60;99.90;;;;;;4883132;29;20208;-82
2021/10/15 03:14:51;;;;;;;15.18;3.53;;;15.60;99.90;;;;;;4882605;29;20231;-83
2021/10/15 03:17:17;;;;;;;11.82;3.47;;;15.60;99.90;;;;;;4883337;29;20208;-84
2021/10/15 03:19:44;;;;;;;11.75;3.33;;;15.70;99.90;;;;;;4882969;29;20197;-82
2021/10/15 03:22:12;;;;;;;13.67;3.40;;;15.60;99.90;;;;;;4875087;29;20601;-84
2021/10/15 03:24:39;;;;;;;9.80;3.28;;;15.60;99.90;;;;;;4882858;29;20505;-81
2021/10/15 03:27:06;;;;;;;8.25;3.65;;;15.60;99.90;;;;;;4901824;29;20485;-84
2021/10/15 03:29:33;;;;;;;11.30;3.53;;;15.60;99.90;;;;;;4901189;29;20211;-85
2021/10/15 03:31:59;;;;;;;13.80;3.80;;;15.50;99.90;;;;;;4901700;29;20234;-83
2021/10/15 03:34:26;;;;;;;11.80;3.70;;;15.50;99.90;;;;;;4901253;29;20200;-84
2021/10/15 03:36:53;;;;;;;9.93;3.45;;;15.50;99.90;;;;;;4882417;29;20208;-82
2021/10/15 03:39:21;;;;;;;11.20;2.93;;;15.50;99.90;;;;;;4882442;29;20231;-84
2021/10/15 03:41:48;;;;;;;14.40;3.63;;;15.50;99.90;;;;;;4882555;29;20211;-83
2021/10/15 03:44:14;;;;;;;12.87;4.03;;;15.50;99.90;;;;;;4882428;29;20213;-83
2021/10/15 03:46:41;;;;;;;13.40;3.60;;;15.50;99.90;;;;;;4882771;29;20204;-83
2021/10/15 03:49:08;;;;;;;13.73;4.00;;;15.50;99.90;;;;;;4882580;29;20211;-83
2021/10/15 03:51:35;;;;;;;12.80;4.17;;;15.50;99.90;;;;;;4882447;29;20214;-85
2021/10/15 03:54:01;;;;;;;11.85;5.03;;;15.50;99.90;;;;;;4882642;29;20238;-83
2021/10/15 03:56:30;;;;;;;14.07;3.85;;;15.50;99.90;;;;;;4882139;29;20200;-81
2021/10/15 03:58:57;;;;;;;11.47;4.50;;;15.50;99.90;;;;;;4900112;29;20239;-85
2021/10/15 04:01:23;;;;;;;11.53;4.47;;;15.50;99.90;;;;;;4901411;29;20207;-83
2021/10/15 04:03:50;;;;;;;11.53;4.10;;;15.50;99.90;;;;;;4875136;29;20215;-81
2021/10/15 04:06:17;;;;;;;18.70;5.07;;;15.50;99.90;;;;;;4882364;29;20251;-82
2021/10/15 04:08:44;;;;;;;9.50;3.78;;;15.50;99.90;;;;;;4882387;29;20254;-83
2021/10/15 04:11:11;;;;;;;12.93;3.72;;;15.50;99.90;;;;;;4882014;29;20200;-84
2021/10/15 04:13:39;;;;;;;11.73;4.25;;;15.40;99.90;;;;;;4881940;29;20208;-88
2021/10/15 04:16:06;;;;;;;11.60;4.53;;;15.50;99.90;;;;;;4882528;29;20207;-85
2021/10/15 04:18:32;;;;;;;18.45;4.85;;;15.50;99.90;;;;;;4891497;29;20235;-85
2021/10/15 04:20:59;;;;;;;12.10;4.97;;;15.50;99.90;;;;;;4901259;29;20210;-83
2021/10/15 04:23:26;;;;;;;13.25;5.78;;;15.40;99.90;;;;;;4901099;29;20211;-87
2021/10/15 04:25:53;;;;;;;14.10;6.03;;;15.30;99.90;;;;;;4900762;29;20207;-85
2021/10/15 04:28:20;;;;;;;16.10;6.13;;;15.20;99.90;;;;;;4885711;29;20235;-87
2021/10/15 04:30:48;;;;;;;15.87;6.53;;;14.90;99.90;;;;;;4885688;29;20204;-90
2021/10/15 04:33:15;;;;;;;16.77;7.00;;;14.90;99.90;;;;;;4884082;29;20616;-87
2021/10/15 04:35:43;;;;;;;15.95;7.53;;;14.80;99.90;;;;;;4882840;29;20191;-90
2021/10/15 04:38:09;;;;;;;26.67;6.75;;;14.70;99.90;;;;;;4882630;29;20239;-86
2021/10/15 04:40:36;;;;;;;18.43;7.27;;;14.60;99.90;;;;;;4882351;29;20215;-89
2021/10/15 04:43:03;;;;;;;10.03;5.57;;;14.60;99.90;;;;;;4882255;29;20216;-88
2021/10/15 04:45:30;;;;;;;13.20;5.63;;;14.50;99.90;;;;;;4882992;29;20211;-87
2021/10/15 04:47:59;;;;;;;14.47;7.83;;;14.50;99.90;;;;;;4882090;29;20204;-90
2021/10/15 04:50:26;;;;;;;17.30;6.43;;;14.40;99.90;;;;;;4882624;29;20211;-90
2021/10/15 04:52:53;;;;;;;14.33;6.70;;;14.40;99.90;;;;;;4882294;29;20207;-88
2021/10/15 04:55:20;;;;;;;17.17;6.63;;;14.30;99.90;;;;;;4882526;29;20208;-88
2021/10/15 04:57:46;;;;;;;16.10;6.43;;;14.30;99.90;;;;;;4882408;29;20476;-88
2021/10/15 05:00:14;;;;;;;17.63;6.57;;;14.30;99.90;;;;;;4885500;29;20210;-87
2021/10/15 05:02:42;;;;;;;19.63;7.90;;;14.30;99.90;;;;;;4900885;29;20200;-88
2021/10/15 05:05:12;;;;;;;17.43;7.50;;;14.30;99.90;;;;;;4900508;29;20203;-88
2021/10/15 05:07:40;;;;;;;8.00;3.20;;;14.30;99.90;;;;;;4913553;29;20580;-89
2021/10/15 05:10:08;;;;;;;9.30;2.30;;;14.20;99.90;;;;;;4920063;29;20206;-85
2021/10/15 05:12:35;;;;;;;6.83;1.83;;;13.90;99.90;;;;;;4919705;29;20207;-91
2021/10/15 05:15:01;;;;;;;6.47;1.87;;;13.70;99.90;;;;;;4920136;29;20202;-90
2021/10/15 05:17:29;;;;;;;6.83;1.27;;;13.40;99.90;;;;;;4904921;29;20219;-93
2021/10/15 05:19:56;;;;;;;6.27;1.60;;;13.30;99.90;;;;;;4904772;29;20239;-90
2021/10/15 05:22:24;;;;;;;9.77;1.60;;;13.10;99.90;;;;;;4904727;29;20222;-89
2021/10/15 05:24:51;;;;;;;10.60;1.80;;;13.00;99.90;;;;;;4904703;29;20203;-83
2021/10/15 05:27:17;;;;;;;5.57;1.20;;;13.00;99.90;;;;;;4904152;29;20214;-84
2021/10/15 05:29:47;;;;;;;6.77;1.47;;;12.90;99.90;;;;;;4914867;29;20796;-84
2021/10/15 05:32:15;;;;;;;5.33;1.50;;;12.80;99.90;;;;;;4923322;29;20262;-85
2021/10/15 05:34:42;;;;;;;8.33;1.60;;;12.80;99.90;;;;;;4922863;29;20203;-86
2021/10/15 05:37:09;;;;;;;7.60;1.97;;;12.70;99.90;;;;;;4922855;29;20207;-90
2021/10/15 05:39:37;;;;;;;9.60;1.53;;;12.70;99.90;;;;;;4926023;29;20518;-88
2021/10/15 05:42:05;;;;;;;6.37;1.77;;;12.60;99.90;;;;;;4922100;29;20206;-89
2021/10/15 05:44:32;;;;;;;8.53;1.90;;;12.60;99.90;;;;;;4910958;29;20222;-89
2021/10/15 05:47:03;;;;;;;6.47;1.60;;;12.50;99.90;;;;;;4908525;29;20480;-87
2021/10/15 05:49:30;;;;;;;6.77;1.63;;;12.40;99.90;;;;;;4905631;29;20195;-89
2021/10/15 05:52:03;;;;;;;10.67;2.03;;;12.40;99.90;;;;;;4903838;29;20218;-90
2021/10/15 05:54:38;;;;;;;7.77;1.90;;;12.40;99.90;;;;;;4903709;29;20267;-89
2021/10/15 05:57:18;;;;;;;9.97;1.70;;;12.40;99.90;;;;;;4904100;29;20221;-88
2021/10/15 05:59:44;;;;;;;13.43;2.33;;;12.30;99.90;;;;;;4913403;29;20227;-90
2021/10/15 06:02:11;;;;;;;13.30;2.90;;;12.30;99.90;;;;;;4907993;29;20197;-90
2021/10/15 06:15:56;;;;;;;14.20;2.30;;;12.20;99.90;;;;;;4884451;29;20252;-86
2021/10/15 06:18:24;;;;;;;7.70;1.50;;;12.20;99.90;;;;;;4884303;29;20203;-87
2021/10/15 06:20:51;;;;;;;14.07;2.07;;;12.30;99.90;;;;;;4898959;29;20210;-91
2021/10/15 06:23:19;;;;;;;6.70;2.37;;;12.20;99.90;;;;;;4902735;29;20215;-89
2021/10/15 06:25:47;;;;;;;8.07;1.60;;;12.20;99.90;;;;;;4885448;29;20224;-88
2021/10/15 06:28:15;;;;;;;11.07;1.83;;;12.20;99.90;;;;;;4883164;29;20212;-90
2021/10/15 06:30:43;;;;;;;12.53;1.80;;;12.20;99.90;;;;;;4884423;29;20208;-88
2021/10/15 06:33:10;;;;;;;10.50;1.80;;;12.20;99.90;;;;;;4884048;29;20208;-89
2021/10/15 06:35:37;;;;;;;7.07;1.70;;;12.30;99.90;;;;;;4884023;29;20207;-90
2021/10/15 06:38:06;;;;;;;7.97;1.73;;;12.30;99.90;;;;;;4883953;29;20207;-90
2021/10/15 06:40:33;;;;;;;14.47;2.17;;;12.30;99.90;;;;;;4902303;29;20235;-87
2021/10/15 06:43:00;;;;;;;10.37;1.77;;;12.20;99.90;;;;;;4902780;29;20204;-84
2021/10/15 06:45:28;;;;;;;7.70;2.00;;;12.30;99.90;;;;;;4887683;29;20325;-85
2021/10/15 06:47:55;;;;;;;6.10;1.73;;;12.20;99.90;;;;;;4883804;29;20212;-87
2021/10/15 06:50:22;;;;;;;6.90;1.73;;;12.20;99.90;;;;;;4883563;29;20505;-89
2021/10/15 06:52:49;;;;;;;7.00;2.07;;;12.20;99.90;;;;;;4883283;29;20207;-92
2021/10/15 06:55:17;;;;;;;10.57;1.87;;;12.30;99.90;;;;;;4884114;29;20259;-89
2021/10/15 06:57:45;;;;;;;8.27;2.00;;;12.30;99.90;;;;;;4883896;29;20271;-88
2021/10/15 07:00:14;;;;;;;10.03;1.97;;;12.30;99.90;;;;;;4884084;29;20236;-85
2021/10/15 07:02:42;;;;;;;10.17;1.40;;;12.40;99.90;;;;;;4883652;29;20260;-86
2021/10/15 07:05:10;;;;;;;9.73;2.13;;;12.40;99.90;;;;;;4892341;29;20215;-86
2021/10/15 07:07:37;;;;;;;10.37;1.87;;;12.30;99.90;;;;;;4901377;29;20549;-89
2021/10/15 07:10:05;;;;;;;8.00;2.03;;;12.30;99.90;;;;;;4902628;29;20207;-90
2021/10/15 07:12:37;;;;;;;9.27;1.70;;;12.30;99.90;;;;;;4902695;29;20207;-90
2021/10/15 07:15:04;;;;;;;10.17;1.97;;;12.30;99.90;;;;;;4902310;29;20184;-89
2021/10/15 07:17:31;;;;;;;12.70;1.90;;;12.30;99.90;;;;;;4902757;29;20207;-90
2021/10/15 07:19:59;;;;;;;11.27;2.13;;;12.30;99.90;;;;;;4902373;29;20221;-89
2021/10/15 07:22:26;;;;;;;16.37;3.17;;;12.30;99.90;;;;;;4902440;29;20220;-89
2021/10/15 07:24:53;;;;;;;13.97;2.57;;;12.30;99.90;;;;;;4902552;29;20474;-89
2021/10/15 07:27:20;;;;;;;9.83;2.00;;;12.30;99.90;;;;;;4902156;29;20207;-91
2021/10/15 07:29:47;;;;;;;8.73;1.80;;;12.30;99.90;;;;;;4907767;29;20666;-87
2021/10/15 07:32:14;;;;;;;10.03;1.97;;;12.30;99.90;;;;;;4904332;29;20203;-91
2021/10/15 07:34:41;;;;;;;12.87;2.50;;;12.30;99.90;;;;;;4892143;29;20226;-90
2021/10/15 07:37:09;;;;;;;12.40;2.27;;;12.30;99.90;;;;;;4883669;29;20212;-90
2021/10/15 07:39:36;;;;;;;19.90;3.13;;;12.30;99.90;;;;;;4883442;29;20228;-92
2021/10/15 07:42:04;;;;;;;8.80;2.40;;;12.30;99.90;;;;;;4883187;29;20212;-90
2021/10/15 07:44:31;;;;;;;10.63;2.27;;;12.40;99.90;;;;;;4888138;29;20219;-92
2021/10/15 07:46:57;;;;;;;10.33;2.37;;;12.40;99.90;;;;;;4902311;29;20195;-84
2021/10/15 07:49:24;;;;;;;10.30;2.30;;;12.50;99.90;;;;;;4901866;29;20203;-90
2021/10/15 07:51:51;;;;;;;10.63;2.30;;;12.50;99.90;;;;;;4901557;29;20214;-89
2021/10/15 07:54:19;;;;;;;11.93;2.67;;;12.60;99.90;;;;;;4902020;29;20627;-92
2021/10/15 07:56:47;;;;;;;11.87;2.63;;;12.60;99.90;;;;;;4901984;29;20203;-91
2021/10/15 07:59:14;;;;;;;10.00;1.90;;;12.60;99.90;;;;;;4890412;29;20242;-89
2021/10/15 08:01:40;;;;;;;10.83;2.53;;;12.60;99.90;;;;;;4883415;29;20226;-89
2021/10/15 08:04:07;;;;;;;12.70;2.30;;;12.60;99.90;;;;;;4882685;29;20203;-87
2021/10/15 08:06:34;;;;;;;11.67;2.10;;;12.60;99.90;;;;;;4883358;29;20549;-88
2021/10/15 08:09:01;;;;;;;7.57;2.30;;;12.70;99.90;;;;;;4900216;29;20207;-87
2021/10/15 08:11:29;;;;;;;7.63;2.23;;;12.80;99.90;;;;;;4901859;29;20255;-88
2021/10/15 08:13:56;;;;;;;7.63;1.87;;;12.70;99.90;;;;;;4901950;29;20207;-93
2021/10/15 08:16:23;;;;;;;9.40;2.00;;;12.70;99.90;;;;;;4901787;29;20206;-92
2021/10/15 08:18:50;;;;;;;6.30;1.50;;;12.70;99.90;;;;;;4886469;29;20216;-88
2021/10/15 08:21:19;;;;;;;9.60;1.80;;;12.70;99.90;;;;;;4883189;29;20192;-90
2021/10/15 08:23:46;;;;;;;11.40;1.97;;;12.70;99.90;;;;;;4882597;29;20509;-87
2021/10/15 08:26:14;;;;;;;10.47;2.03;;;12.70;99.90;;;;;;4882446;29;20223;-88
2021/10/15 08:28:44;;;;;;;8.80;2.23;;;12.70;99.90;;;;;;4882653;29;20246;-85
2021/10/15 08:31:12;;;;;;;7.13;1.73;;;12.70;99.90;;;;;;4882417;29;20307;-86
2021/10/15 08:33:40;;;;;;;6.90;1.77;;;12.70;99.90;;;;;;4883330;29;20208;-89
2021/10/15 08:36:07;;;;;;;10.17;1.73;;;12.80;99.90;;;;;;4902150;29;20203;-86
2021/10/15 08:38:34;;;;;;;11.30;1.80;;;12.80;99.90;;;;;;4902456;29;20226;-90
2021/10/15 08:41:01;;;;;;;6.97;1.47;;;12.80;99.90;;;;;;4901028;29;20232;-90
2021/10/15 08:43:36;;;;;;;12.70;2.20;;;12.80;99.90;;;;;;4901076;29;20207;-91
2021/10/15 08:46:05;;;;;;;13.47;2.50;;;12.90;99.90;;;;;;4882199;29;20218;-91
2021/10/15 08:48:32;;;;;;;5.13;1.40;;;13.00;99.90;;;;;;4882134;29;20294;-87
2021/10/15 08:50:59;;;;;;;5.73;1.40;;;13.10;99.90;;;;;;4881438;29;20291;-88
2021/10/15 08:53:25;;;;;;;12.87;1.80;;;13.20;99.90;;;;;;4881742;29;20208;-85
2021/10/15 08:55:52;;;;;;;6.63;1.93;;;13.40;99.90;;;;;;4882687;29;20211;-88
2021/10/15 08:58:20;;;;;;;8.77;2.00;;;13.50;99.90;;;;;;4882537;29;20192;-87
2021/10/15 09:00:57;;;;;;;8.07;1.60;;;13.60;99.90;;;;;;4884021;29;20352;-89
2021/10/15 09:03:25;;;;;;;7.23;2.03;;;13.60;99.90;;;;;;4883381;29;20628;-90
2021/10/15 09:05:55;;;;;;;8.87;1.80;;;13.60;99.90;;;;;;4882447;29;20662;-89
2021/10/15 09:08:22;;;;;;;9.03;1.73;;;13.60;99.90;;;;;;4881494;29;20251;-87
2021/10/15 09:10:49;;;;;;;9.57;2.70;;;13.50;99.90;;;;;;4886700;29;20222;-89
2021/10/15 09:13:19;;;;;;;9.93;1.70;;;13.50;99.90;;;;;;4900420;29;20206;-89
2021/10/15 09:15:47;;;;;;;5.83;2.50;;;13.60;99.90;;;;;;4897220;29;20492;-87
2021/10/15 09:18:15;;;;;;;7.47;1.80;;;13.60;99.90;;;;;;4882155;29;20200;-90
2021/10/15 09:20:45;;;;;;;7.33;1.50;;;13.70;99.90;;;;;;4881874;29;20259;-90
2021/10/15 09:23:14;;;;;;;14.07;3.90;;;13.80;99.90;;;;;;4881902;29;20613;-86
2021/10/15 09:25:42;;;;;;;9.20;2.27;;;13.90;99.90;;;;;;4881924;29;20209;-90
2021/10/15 09:28:17;;;;;;;14.47;2.30;;;14.00;99.90;;;;;;4881897;29;20605;-91
2021/10/15 09:30:45;;;;;;;10.73;1.97;;;14.10;99.90;;;;;;4899238;29;20192;-87
2021/10/15 09:33:12;;;;;;;8.77;1.70;;;14.00;99.90;;;;;;4891622;29;20220;-93
2021/10/15 09:35:40;;;;;;;10.27;2.00;;;13.90;99.90;;;;;;4881595;29;20208;-89
2021/10/15 09:38:10;;;;;;;10.27;2.10;;;13.90;99.90;;;;;;4881222;29;20222;-86
2021/10/15 09:40:39;;;;;;;9.37;2.13;;;13.90;99.90;;;;;;4882041;29;20319;-90
2021/10/15 09:43:09;;;;;;;11.57;2.77;;;13.90;99.90;;;;;;4892842;29;20215;-86
2021/10/15 09:45:38;;;;;;;14.60;2.10;;;14.00;99.90;;;;;;4900440;29;20644;-87
2021/10/15 09:48:19;;;;;;;10.97;2.60;;;14.00;99.90;;;;;;4881284;29;20227;-88
2021/10/15 09:50:45;;;;;;;9.97;2.20;;;14.20;99.90;;;;;;4881029;29;20216;-85
2021/10/15 09:53:14;;;;;;;6.80;1.73;;;14.30;99.90;;;;;;4881486;29;20628;-89
2021/10/15 09:55:42;;;;;;;7.83;1.40;;;14.30;99.90;;;;;;4881487;29;20211;-88
2021/10/15 09:58:10;;;;;;;8.60;1.80;;;14.40;99.90;;;;;;4895517;29;20211;-86
2021/10/15 10:00:38;;;;;;;7.37;1.80;;;14.50;99.90;;;;;;4900764;29;20271;-91
2021/10/15 10:03:09;;;;;;;5.43;1.27;;;14.50;99.90;;;;;;4898190;29;20218;-90
2021/10/15 10:05:37;;;;;;;11.63;1.80;;;14.60;99.90;;;;;;4894363;29;20203;-91
2021/10/15 10:08:05;;;;;;;6.57;1.83;;;14.60;99.90;;;;;;4878915;29;20258;-87
2021/10/15 10:10:36;;;;;;;12.17;1.93;;;14.70;99.90;;;;;;4890949;29;20766;-87
2021/10/15 10:13:04;;;;;;;10.70;2.30;;;14.80;99.90;;;;;;4897685;29;20211;-85
2021/10/15 10:15:34;;;;;;;10.30;2.43;;;14.90;99.90;;;;;;4895471;29;20484;-83
2021/10/15 10:18:11;;;;;;;8.95;2.70;;;15.10;99.90;;;;;;4878067;29;20613;-84
2021/10/15 10:20:41;;;;;;;12.03;2.27;;;15.20;99.90;;;;;;4879792;29;20893;-82
2021/10/15 10:23:13;;;;;;;11.07;2.75;;;15.30;99.90;;;;;;4889905;29;20234;-85
2021/10/15 10:25:41;;;;;;;12.70;2.80;;;15.30;99.90;;;;;;4892282;29;20219;-85
2021/10/15 10:28:17;;;;;;;15.47;3.33;;;15.30;99.90;;;;;;4879950;29;20371;-83
2021/10/15 10:30:46;;;;;;;14.40;3.72;;;15.30;99.90;;;;;;4881612;29;20235;-85
2021/10/15 10:33:13;;;;;;;17.98;3.65;;;15.20;99.90;;;;;;4882201;29;20208;-84
2021/10/15 10:35:42;;;;;;;12.18;3.25;;;15.10;99.90;;;;;;4881286;29;20222;-90
2021/10/15 10:38:32;;;;;;;10.27;2.60;;;14.90;99.90;;;;;;4880639;29;20212;-90
2021/10/15 10:41:14;;;;;;;11.35;2.88;;;14.80;99.90;;;;;;4879625;29;20633;-91
2021/10/15 10:44:21;;;;;;;11.98;2.75;;;14.90;99.90;;;;;;4884596;29;20217;-90
2021/10/15 10:47:08;;;;;;;10.68;2.50;;;15.10;99.90;;;;;;4898008;29;20191;-94
2021/10/15 10:49:36;;;;;;;8.90;2.60;;;15.20;99.90;;;;;;4887548;29;20218;-92
2021/10/15 10:52:20;;;;;;;11.27;2.67;;;15.30;99.90;;;;;;4876920;29;20218;-91
2021/10/15 10:54:48;;;;;;;10.70;2.30;;;15.30;99.90;;;;;;4893332;29;20584;-92
2021/10/15 10:57:30;;;;;;;9.27;2.13;;;15.30;99.90;;;;;;4895868;29;20214;-92
2021/10/15 11:00:19;;;;;;;11.07;2.73;;;15.40;99.90;;;;;;4892994;29;20215;-87
2021/10/15 11:02:48;;;;;;;9.90;2.30;;;15.40;99.90;;;;;;4896967;29;20238;-87
2021/10/15 11:05:32;;;;;;;12.07;3.13;;;15.40;99.90;;;;;;4893951;29;20231;-91
2021/10/15 11:08:28;;;;;;;10.98;2.42;;;15.50;99.90;;;;;;4893525;29;20270;-88
2021/10/15 11:11:42;;;;;;;12.48;2.72;;;15.50;99.90;;;;;;4895716;29;20215;-89
2021/10/15 11:14:42;;;;;;;11.43;2.10;;;15.40;99.90;;;;;;4893681;29;20235;-94
2021/10/15 11:17:10;;;;;;;12.40;2.47;;;15.50;99.90;;;;;;4893044;29;20672;-83
2021/10/15 11:19:37;;;;;;;7.25;1.83;;;15.60;99.90;;;;;;4895299;29;20207;-90
2021/10/15 11:22:04;;;;;;;12.05;2.08;;;15.60;99.90;;;;;;4895923;29;20238;-87
2021/10/15 11:24:34;;;;;;;7.68;1.60;;;15.70;99.90;;;;;;4894296;29;20230;-89
2021/10/15 11:27:01;;;;;;;5.82;1.88;;;15.70;99.90;;;;;;4895812;29;20218;-84
2021/10/15 11:29:52;;;;;;;9.32;2.95;;;15.70;99.90;;;;;;4892133;29;20242;-89
2021/10/15 11:32:34;;;;;;;8.32;2.03;;;15.80;99.90;;;;;;4896765;29;20219;-88
2021/10/15 11:35:15;;;;;;;9.65;1.92;;;15.90;99.90;;;;;;4897399;29;20203;-87
2021/10/15 11:37:47;;;;;;;9.18;2.30;;;15.90;99.90;;;;;;4895263;29;20211;-90
2021/10/15 11:40:18;;;;;;;11.93;2.88;;;16.00;99.90;;;;;;4896776;29;20219;-81
2021/10/15 11:42:45;;;;;;;7.65;2.47;;;16.20;99.90;;;;;;4896283;29;20258;-84
2021/10/15 11:45:25;;;;;;;15.65;2.85;;;16.20;99.90;;;;;;4877667;29;20207;-95
2021/10/15 11:48:07;;;;;;;11.77;2.95;;;16.20;99.90;;;;;;4877262;29;20208;-87
2021/10/15 11:50:40;;;;;;;8.93;2.28;;;16.10;99.90;;;;;;4878705;29;20211;-89
2021/10/15 11:53:08;;;;;;;9.90;2.90;;;16.10;99.90;;;;;;4878609;29;20416;-83
2021/10/15 11:55:37;;;;;;;9.77;2.42;;;16.10;99.90;;;;;;4877626;29;20212;-88
2021/10/15 11:58:34;;;;;;;10.95;2.47;;;16.20;99.90;;;;;;4877955;29;20843;-87
2021/10/15 12:01:15;;;;;;;10.05;2.90;;;16.30;99.90;;;;;;4875081;29;20228;-83
2021/10/15 12:03:44;;;;;;;12.93;2.70;;;16.30;99.90;;;;;;4878714;29;20763;-86
2021/10/15 12:06:30;;;;;;;9.10;3.00;;;16.20;99.90;;;;;;4887534;29;20219;-89
2021/10/15 12:09:00;;;;;;;12.48;2.30;;;16.10;99.90;;;;;;4884851;29;20231;-84
2021/10/15 12:11:53;;;;;;;9.77;2.65;;;16.10;99.90;;;;;;4878547;29;20208;-92
2021/10/15 12:14:29;;;;;;;12.45;3.03;;;16.00;99.90;;;;;;4878440;29;20204;-91
2021/10/15 12:17:00;;;;;;;11.00;2.78;;;15.80;99.90;;;;;;4878125;29;20212;-91
2021/10/15 12:19:29;;;;;;;9.30;2.38;;;15.60;99.90;;;;;;4892600;29;20230;-85
2021/10/15 12:22:05;;;;;;;13.82;2.50;;;15.50;99.90;;;;;;4880816;29;20238;-93
2021/10/15 12:24:33;;;;;;;8.52;2.28;;;15.50;99.90;;;;;;4876745;29;20218;-88
2021/10/15 12:27:07;;;;;;;12.35;2.40;;;15.50;99.90;;;;;;4895112;29;20506;-93
2021/10/15 12:29:36;;;;;;;8.40;2.17;;;15.60;99.90;;;;;;4895823;29;20235;-90
2021/10/15 12:32:21;;;;;;;8.88;2.30;;;15.50;99.90;;;;;;4882398;29;20212;-87
2021/10/15 12:35:03;;;;;;;7.90;2.30;;;15.50;99.90;;;;;;4875192;29;20208;-95
2021/10/15 12:37:40;;;;;;;12.13;2.40;;;15.50;99.90;;;;;;4877368;29;20219;-93
2021/10/15 12:40:17;;;;;;;10.15;2.50;;;15.50;99.90;;;;;;4876350;29;20204;-86
2021/10/15 12:42:45;;;;;;;10.10;2.13;;;15.50;99.90;;;;;;4876385;29;20212;-90
2021/10/15 12:45:14;;;;;;;8.45;1.70;;;15.50;99.90;;;;;;4874628;29;20218;-89
2021/10/15 12:47:54;;;;;;;9.10;1.88;;;15.50;99.90;;;;;;4876266;29;20216;-90
2021/10/15 12:50:20;;;;;;;8.83;2.10;;;15.50;99.90;;;;;;4875525;29;20719;-87
2021/10/15 12:52:47;;;;;;;9.48;2.35;;;15.40;99.90;;;;;;4874804;29;20206;-80
2021/10/15 12:55:16;;;;;;;10.50;2.45;;;15.50;99.90;;;;;;4876161;29;20241;-87
2021/10/15 12:57:44;;;;;;;11.18;2.80;;;15.50;99.90;;;;;;4875654;29;20203;-85
2021/10/15 13:00:13;;;;;;;9.70;2.47;;;15.50;99.90;;;;;;4876818;29;20635;-84
2021/10/15 13:02:42;;;;;;;9.55;2.33;;;15.40;99.90;;;;;;4876602;29;20212;-91